sensor_id;sensor_type;location;lat;lon;timestamp;pressure;altitude;pressure_sealevel;temperature;humidity
60886;BME280;46736;41.654;-8.438;2022-08-01T00:00:43;100407.09;;;24.77;58.59
60886;BME280;46736;41.654;-8.438;2022-08-01T00:02:44;100427.63;;;24.80;58.77
60886;BME280;46736;41.654;-8.438;2022-08-01T00:04:44;100427.94;;;24.78;58.23
60886;BME280;46736;41.654;-8.438;2022-08-01T00:06:45;100423.38;;;24.82;58.30
60886;BME280;46736;41.654;-8.438;2022-08-01T00:08:46;100405.47;;;24.76;58.46
60886;BME280;46736;41.654;-8.438;2022-08-01T00:10:46;100414.19;;;24.78;58.72
60886;BME280;46736;41.654;-8.438;2022-08-01T00:20:36;100425.31;;;24.70;58.51
60886;BME280;46736;41.654;-8.438;2022-08-01T00:22:37;100417.06;;;24.70;58.91
60886;BME280;46736;41.654;-8.438;2022-08-01T00:24:39;100417.47;;;24.47;60.27
60886;BME280;46736;41.654;-8.438;2022-08-01T00:26:39;100426.56;;;24.39;60.62
60886;BME280;46736;41.654;-8.438;2022-08-01T00:28:40;100414.06;;;24.29;61.00
60886;BME280;46736;41.654;-8.438;2022-08-01T00:30:41;100411.72;;;24.19;60.96
60886;BME280;46736;41.654;-8.438;2022-08-01T00:32:42;100423.09;;;24.30;60.07
60886;BME280;46736;41.654;-8.438;2022-08-01T00:34:43;100421.38;;;24.25;60.06
60886;BME280;46736;41.654;-8.438;2022-08-01T00:36:43;100419.19;;;24.18;60.39
60886;BME280;46736;41.654;-8.438;2022-08-01T00:38:44;100420.28;;;24.05;60.83
60886;BME280;46736;41.654;-8.438;2022-08-01T00:40:45;100403.72;;;23.93;60.93
60886;BME280;46736;41.654;-8.438;2022-08-01T00:44:56;100420.69;;;23.95;60.63
60886;BME280;46736;41.654;-8.438;2022-08-01T00:46:57;100424.44;;;23.90;60.92
60886;BME280;46736;41.654;-8.438;2022-08-01T00:48:58;100418.69;;;23.83;60.92
60886;BME280;46736;41.654;-8.438;2022-08-01T00:50:59;100412.94;;;23.76;61.45
60886;BME280;46736;41.654;-8.438;2022-08-01T00:53:00;100415.94;;;23.83;61.44
60886;BME280;46736;41.654;-8.438;2022-08-01T00:55:03;100418.47;;;23.67;61.29
60886;BME280;46736;41.654;-8.438;2022-08-01T00:57:04;100408.63;;;23.66;61.48
60886;BME280;46736;41.654;-8.438;2022-08-01T00:59:05;100411.22;;;23.63;61.45
60886;BME280;46736;41.654;-8.438;2022-08-01T01:01:06;100415.53;;;23.72;61.30
60886;BME280;46736;41.654;-8.438;2022-08-01T01:03:07;100415.09;;;23.62;61.06
60886;BME280;46736;41.654;-8.438;2022-08-01T01:05:09;100409.97;;;23.60;61.48
60886;BME280;46736;41.654;-8.438;2022-08-01T01:09:23;100403.78;;;23.63;60.80
60886;BME280;46736;41.654;-8.438;2022-08-01T01:13:43;100403.19;;;23.57;61.12
60886;BME280;46736;41.654;-8.438;2022-08-01T01:15:51;100410.84;;;23.52;61.66
60886;BME280;46736;41.654;-8.438;2022-08-01T01:18:00;100402.25;;;23.53;62.15
60886;BME280;46736;41.654;-8.438;2022-08-01T01:20:04;100411.28;;;23.54;62.04
60886;BME280;46736;41.654;-8.438;2022-08-01T01:22:22;100399.75;;;23.40;62.99
60886;BME280;46736;41.654;-8.438;2022-08-01T01:27:05;100385.47;;;23.25;61.75
60886;BME280;46736;41.654;-8.438;2022-08-01T01:29:25;100373.91;;;23.20;62.62
60886;BME280;46736;41.654;-8.438;2022-08-01T01:31:29;100383.88;;;23.24;62.53
60886;BME280;46736;41.654;-8.438;2022-08-01T01:33:34;100397.88;;;23.31;62.88
60886;BME280;46736;41.654;-8.438;2022-08-01T01:35:42;100394.72;;;23.21;63.52
60886;BME280;46736;41.654;-8.438;2022-08-01T01:38:12;100386.22;;;23.13;63.48
60886;BME280;46736;41.654;-8.438;2022-08-01T01:40:15;100395.78;;;23.07;63.56
60886;BME280;46736;41.654;-8.438;2022-08-01T01:42:18;100394.34;;;23.01;64.06
60886;BME280;46736;41.654;-8.438;2022-08-01T01:46:53;100401.38;;;23.11;63.42
60886;BME280;46736;41.654;-8.438;2022-08-01T01:48:57;100392.75;;;23.00;63.68
60886;BME280;46736;41.654;-8.438;2022-08-01T01:50:59;100392.06;;;23.03;64.37
60886;BME280;46736;41.654;-8.438;2022-08-01T01:53:02;100381.41;;;23.02;64.38
60886;BME280;46736;41.654;-8.438;2022-08-01T01:55:08;100385.13;;;23.06;64.21
60886;BME280;46736;41.654;-8.438;2022-08-01T01:57:11;100392.09;;;22.94;64.47
60886;BME280;46736;41.654;-8.438;2022-08-01T01:59:12;100383.53;;;23.05;64.29
60886;BME280;46736;41.654;-8.438;2022-08-01T02:01:14;100392.56;;;22.97;64.17
60886;BME280;46736;41.654;-8.438;2022-08-01T02:03:17;100377.47;;;22.82;64.93
60886;BME280;46736;41.654;-8.438;2022-08-01T02:05:20;100380.09;;;22.69;65.04
60886;BME280;46736;41.654;-8.438;2022-08-01T02:07:24;100382.09;;;22.52;65.94
60886;BME280;46736;41.654;-8.438;2022-08-01T02:09:26;100381.81;;;22.36;66.40
60886;BME280;46736;41.654;-8.438;2022-08-01T02:11:28;100369.63;;;22.24;66.61
60886;BME280;46736;41.654;-8.438;2022-08-01T02:13:31;100373.28;;;22.28;66.59
60886;BME280;46736;41.654;-8.438;2022-08-01T02:15:34;100377.66;;;22.30;67.05
60886;BME280;46736;41.654;-8.438;2022-08-01T02:17:41;100375.06;;;22.33;66.76
60886;BME280;46736;41.654;-8.438;2022-08-01T02:19:45;100375.69;;;22.39;67.00
60886;BME280;46736;41.654;-8.438;2022-08-01T02:21:54;100372.78;;;22.44;66.92
60886;BME280;46736;41.654;-8.438;2022-08-01T02:24:02;100374.97;;;22.59;66.01
60886;BME280;46736;41.654;-8.438;2022-08-01T02:28:13;100364.97;;;22.63;66.17
60886;BME280;46736;41.654;-8.438;2022-08-01T02:30:16;100375.81;;;22.51;66.77
60886;BME280;46736;41.654;-8.438;2022-08-01T02:32:25;100375.81;;;22.51;66.45
60886;BME280;46736;41.654;-8.438;2022-08-01T02:34:29;100362.78;;;22.48;66.44
60886;BME280;46736;41.654;-8.438;2022-08-01T02:36:33;100371.97;;;22.43;67.04
60886;BME280;46736;41.654;-8.438;2022-08-01T02:38:40;100374.53;;;22.48;66.52
60886;BME280;46736;41.654;-8.438;2022-08-01T02:40:45;100373.00;;;22.21;67.36
60886;BME280;46736;41.654;-8.438;2022-08-01T02:42:49;100362.81;;;22.13;67.45
60886;BME280;46736;41.654;-8.438;2022-08-01T02:44:52;100364.44;;;22.14;67.62
60886;BME280;46736;41.654;-8.438;2022-08-01T02:46:57;100362.03;;;22.13;67.44
60886;BME280;46736;41.654;-8.438;2022-08-01T02:48:59;100366.22;;;22.10;67.70
60886;BME280;46736;41.654;-8.438;2022-08-01T02:51:03;100369.59;;;22.16;67.57
60886;BME280;46736;41.654;-8.438;2022-08-01T02:53:05;100372.19;;;22.12;67.50
60886;BME280;46736;41.654;-8.438;2022-08-01T02:55:12;100375.09;;;22.07;67.87
60886;BME280;46736;41.654;-8.438;2022-08-01T02:57:15;100369.59;;;22.07;68.01
60886;BME280;46736;41.654;-8.438;2022-08-01T02:59:18;100375.22;;;22.11;68.05
60886;BME280;46736;41.654;-8.438;2022-08-01T03:01:22;100370.72;;;22.15;67.73
60886;BME280;46736;41.654;-8.438;2022-08-01T03:03:23;100375.91;;;22.25;67.06
60886;BME280;46736;41.654;-8.438;2022-08-01T03:05:25;100379.25;;;22.13;67.38
60886;BME280;46736;41.654;-8.438;2022-08-01T03:07:27;100379.28;;;22.04;67.59
60886;BME280;46736;41.654;-8.438;2022-08-01T03:09:32;100374.75;;;22.00;67.70
60886;BME280;46736;41.654;-8.438;2022-08-01T03:11:36;100358.38;;;21.82;68.08
60886;BME280;46736;41.654;-8.438;2022-08-01T03:13:40;100375.44;;;21.88;68.40
60886;BME280;46736;41.654;-8.438;2022-08-01T03:17:53;100366.59;;;21.82;68.62
60886;BME280;46736;41.654;-8.438;2022-08-01T03:19:57;100358.84;;;21.84;68.46
60886;BME280;46736;41.654;-8.438;2022-08-01T03:22:01;100340.34;;;21.73;68.66
60886;BME280;46736;41.654;-8.438;2022-08-01T03:24:36;100369.31;;;21.82;68.91
60886;BME280;46736;41.654;-8.438;2022-08-01T03:26:40;100358.53;;;21.77;68.95
60886;BME280;46736;41.654;-8.438;2022-08-01T03:28:44;100355.16;;;21.80;68.79
60886;BME280;46736;41.654;-8.438;2022-08-01T03:30:47;100348.72;;;21.85;68.56
60886;BME280;46736;41.654;-8.438;2022-08-01T03:32:47;100359.63;;;21.94;68.67
60886;BME280;46736;41.654;-8.438;2022-08-01T03:34:48;100354.97;;;22.03;68.08
60886;BME280;46736;41.654;-8.438;2022-08-01T03:36:59;100352.03;;;22.08;68.10
60886;BME280;46736;41.654;-8.438;2022-08-01T03:39:03;100354.16;;;22.11;67.79
60886;BME280;46736;41.654;-8.438;2022-08-01T03:41:09;100353.63;;;22.18;67.86
60886;BME280;46736;41.654;-8.438;2022-08-01T03:43:20;100346.72;;;22.12;67.92
60886;BME280;46736;41.654;-8.438;2022-08-01T03:45:38;100342.84;;;22.13;67.62
60886;BME280;46736;41.654;-8.438;2022-08-01T03:47:43;100323.56;;;22.00;67.82
60886;BME280;46736;41.654;-8.438;2022-08-01T03:49:45;100330.13;;;22.17;67.69
60886;BME280;46736;41.654;-8.438;2022-08-01T03:54:12;100330.28;;;22.20;67.69
60886;BME280;46736;41.654;-8.438;2022-08-01T03:56:18;100327.88;;;22.10;67.50
60886;BME280;46736;41.654;-8.438;2022-08-01T03:58:20;100331.44;;;22.02;67.87
60886;BME280;46736;41.654;-8.438;2022-08-01T04:00:21;100300.06;;;21.73;68.34
60886;BME280;46736;41.654;-8.438;2022-08-01T04:02:22;100334.53;;;21.83;69.22
60886;BME280;46736;41.654;-8.438;2022-08-01T04:04:23;100336.31;;;21.79;69.01
60886;BME280;46736;41.654;-8.438;2022-08-01T04:06:24;100332.94;;;21.73;69.42
60886;BME280;46736;41.654;-8.438;2022-08-01T04:10:57;100327.31;;;21.70;69.28
60886;BME280;46736;41.654;-8.438;2022-08-01T04:12:59;100328.25;;;21.74;69.27
60886;BME280;46736;41.654;-8.438;2022-08-01T04:14:59;100326.50;;;21.69;69.35
60886;BME280;46736;41.654;-8.438;2022-08-01T04:17:00;100327.97;;;21.67;69.69
60886;BME280;46736;41.654;-8.438;2022-08-01T04:19:02;100328.44;;;21.51;69.83
60886;BME280;46736;41.654;-8.438;2022-08-01T04:21:02;100319.09;;;21.44;70.18
60886;BME280;46736;41.654;-8.438;2022-08-01T04:23:03;100322.44;;;21.32;70.64
60886;BME280;46736;41.654;-8.438;2022-08-01T04:25:09;100318.13;;;21.39;70.41
60886;BME280;46736;41.654;-8.438;2022-08-01T04:27:13;100317.75;;;21.32;70.34
60886;BME280;46736;41.654;-8.438;2022-08-01T04:29:17;100327.75;;;21.28;70.95
60886;BME280;46736;41.654;-8.438;2022-08-01T04:31:19;100327.25;;;21.26;70.86
60886;BME280;46736;41.654;-8.438;2022-08-01T04:35:32;100335.78;;;21.25;71.49
60886;BME280;46736;41.654;-8.438;2022-08-01T04:53:16;100340.91;;;21.09;71.78
60886;BME280;46736;41.654;-8.438;2022-08-01T05:24:04;100342.41;;;20.75;73.01
60886;BME280;46736;41.654;-8.438;2022-08-01T05:28:39;100330.41;;;20.85;72.76
60886;BME280;46736;41.654;-8.438;2022-08-01T05:56:03;100351.19;;;21.03;72.50
60886;BME280;46736;41.654;-8.438;2022-08-01T05:58:04;100362.63;;;21.14;72.44
60886;BME280;46736;41.654;-8.438;2022-08-01T06:00:05;100350.72;;;21.10;72.27
60886;BME280;46736;41.654;-8.438;2022-08-01T06:02:12;100362.31;;;21.24;71.84
60886;BME280;46736;41.654;-8.438;2022-08-01T06:04:12;100362.50;;;21.36;71.59
60886;BME280;46736;41.654;-8.438;2022-08-01T06:06:13;100365.25;;;21.28;72.01
60886;BME280;46736;41.654;-8.438;2022-08-01T06:08:15;100362.16;;;21.12;72.36
60886;BME280;46736;41.654;-8.438;2022-08-01T06:10:15;100367.63;;;21.12;72.94
60886;BME280;46736;41.654;-8.438;2022-08-01T06:12:16;100367.00;;;21.15;72.62
60886;BME280;46736;41.654;-8.438;2022-08-01T06:14:17;100369.88;;;21.27;71.93
60886;BME280;46736;41.654;-8.438;2022-08-01T06:16:17;100364.09;;;21.29;71.95
60886;BME280;46736;41.654;-8.438;2022-08-01T06:18:19;100369.91;;;21.36;72.14
60886;BME280;46736;41.654;-8.438;2022-08-01T06:20:19;100368.34;;;21.44;71.79
60886;BME280;46736;41.654;-8.438;2022-08-01T06:22:20;100360.94;;;21.44;71.78
60886;BME280;46736;41.654;-8.438;2022-08-01T06:24:21;100370.94;;;21.57;71.40
60886;BME280;46736;41.654;-8.438;2022-08-01T06:26:26;100357.09;;;21.62;71.10
60886;BME280;46736;41.654;-8.438;2022-08-01T06:28:26;100374.94;;;21.69;71.26
60886;BME280;46736;41.654;-8.438;2022-08-01T06:30:27;100365.13;;;21.76;71.30
60886;BME280;46736;41.654;-8.438;2022-08-01T06:32:28;100357.88;;;21.89;71.65
60886;BME280;46736;41.654;-8.438;2022-08-01T06:34:29;100366.09;;;21.98;71.40
60886;BME280;46736;41.654;-8.438;2022-08-01T06:36:30;100359.47;;;21.99;70.91
60886;BME280;46736;41.654;-8.438;2022-08-01T06:38:31;100363.00;;;22.08;70.37
60886;BME280;46736;41.654;-8.438;2022-08-01T06:40:31;100351.88;;;22.13;70.33
60886;BME280;46736;41.654;-8.438;2022-08-01T06:42:32;100359.91;;;22.18;70.52
60886;BME280;46736;41.654;-8.438;2022-08-01T06:44:36;100351.84;;;22.31;70.21
60886;BME280;46736;41.654;-8.438;2022-08-01T06:46:36;100353.63;;;22.35;69.56
60886;BME280;46736;41.654;-8.438;2022-08-01T06:48:37;100357.28;;;22.48;68.22
60886;BME280;46736;41.654;-8.438;2022-08-01T06:50:39;100355.66;;;22.56;69.13
60886;BME280;46736;41.654;-8.438;2022-08-01T06:52:41;100362.38;;;22.67;68.92
60886;BME280;46736;41.654;-8.438;2022-08-01T06:54:41;100361.03;;;22.73;68.73
60886;BME280;46736;41.654;-8.438;2022-08-01T06:56:42;100350.91;;;22.74;68.36
60886;BME280;46736;41.654;-8.438;2022-08-01T06:58:43;100334.63;;;22.68;67.83
60886;BME280;46736;41.654;-8.438;2022-08-01T07:00:43;100356.75;;;22.93;68.50
60886;BME280;46736;41.654;-8.438;2022-08-01T07:02:45;100338.41;;;22.85;68.41
60886;BME280;46736;41.654;-8.438;2022-08-01T07:04:46;100361.91;;;23.03;68.67
60886;BME280;46736;41.654;-8.438;2022-08-01T07:06:46;100359.28;;;23.07;68.57
60886;BME280;46736;41.654;-8.438;2022-08-01T07:08:47;100364.59;;;23.12;68.23
60886;BME280;46736;41.654;-8.438;2022-08-01T07:10:48;100361.03;;;23.11;67.77
60886;BME280;46736;41.654;-8.438;2022-08-01T07:12:48;100361.66;;;23.17;67.76
60886;BME280;46736;41.654;-8.438;2022-08-01T07:14:49;100372.38;;;23.31;66.78
60886;BME280;46736;41.654;-8.438;2022-08-01T07:16:50;100376.81;;;23.44;65.87
60886;BME280;46736;41.654;-8.438;2022-08-01T07:18:51;100338.00;;;23.33;65.33
60886;BME280;46736;41.654;-8.438;2022-08-01T07:20:55;100352.34;;;23.51;64.65
60886;BME280;46736;41.654;-8.438;2022-08-01T07:22:56;100379.19;;;23.75;64.91
60886;BME280;46736;41.654;-8.438;2022-08-01T07:24:56;100374.41;;;23.85;63.41
60886;BME280;46736;41.654;-8.438;2022-08-01T07:26:57;100371.44;;;23.90;62.72
60886;BME280;46736;41.654;-8.438;2022-08-01T07:28:58;100383.19;;;24.11;62.03
60886;BME280;46736;41.654;-8.438;2022-08-01T07:30:58;100366.44;;;24.25;62.11
60886;BME280;46736;41.654;-8.438;2022-08-01T07:32:59;100384.00;;;24.45;63.17
60886;BME280;46736;41.654;-8.438;2022-08-01T07:35:02;100379.00;;;24.59;61.83
60886;BME280;46736;41.654;-8.438;2022-08-01T07:37:03;100370.03;;;24.50;62.68
60886;BME280;46736;41.654;-8.438;2022-08-01T07:41:14;100372.22;;;24.44;62.44
60886;BME280;46736;41.654;-8.438;2022-08-01T07:43:15;100378.75;;;24.52;62.52
60886;BME280;46736;41.654;-8.438;2022-08-01T07:45:15;100366.97;;;24.52;62.21
60886;BME280;46736;41.654;-8.438;2022-08-01T07:47:26;100386.81;;;24.70;61.62
60886;BME280;46736;41.654;-8.438;2022-08-01T07:49:28;100364.81;;;24.70;61.26
60886;BME280;46736;41.654;-8.438;2022-08-01T07:51:29;100396.78;;;24.99;60.82
60886;BME280;46736;41.654;-8.438;2022-08-01T07:53:30;100371.22;;;24.98;60.82
60886;BME280;46736;41.654;-8.438;2022-08-01T07:55:31;100393.78;;;25.28;60.23
60886;BME280;46736;41.654;-8.438;2022-08-01T07:57:31;100392.34;;;25.59;59.08
60886;BME280;46736;41.654;-8.438;2022-08-01T07:59:33;100382.34;;;26.67;56.85
60886;BME280;46736;41.654;-8.438;2022-08-01T08:01:34;100383.44;;;28.69;51.68
60886;BME280;46736;41.654;-8.438;2022-08-01T08:03:54;100395.53;;;30.76;46.86
60886;BME280;46736;41.654;-8.438;2022-08-01T08:05:56;100395.97;;;32.39;43.37
60886;BME280;46736;41.654;-8.438;2022-08-01T08:07:56;100395.38;;;33.84;39.74
60886;BME280;46736;41.654;-8.438;2022-08-01T08:25:18;100405.78;;;39.37;28.39
60886;BME280;46736;41.654;-8.438;2022-08-01T08:27:19;100405.88;;;39.88;27.22
60886;BME280;46736;41.654;-8.438;2022-08-01T08:29:21;100416.25;;;40.04;27.52
60886;BME280;46736;41.654;-8.438;2022-08-01T08:31:22;100406.34;;;40.51;26.89
60886;BME280;46736;41.654;-8.438;2022-08-01T08:33:23;100407.47;;;40.66;26.99
60886;BME280;46736;41.654;-8.438;2022-08-01T08:35:24;100421.19;;;40.77;26.20
60886;BME280;46736;41.654;-8.438;2022-08-01T08:37:24;100405.28;;;41.40;25.29
60886;BME280;46736;41.654;-8.438;2022-08-01T08:39:34;100391.97;;;41.18;25.63
60886;BME280;46736;41.654;-8.438;2022-08-01T08:41:35;100405.22;;;41.30;25.52
60886;BME280;46736;41.654;-8.438;2022-08-01T08:43:36;100409.06;;;41.02;25.82
60886;BME280;46736;41.654;-8.438;2022-08-01T08:45:37;100391.31;;;41.58;25.03
60886;BME280;46736;41.654;-8.438;2022-08-01T08:47:39;100415.19;;;41.44;25.18
60886;BME280;46736;41.654;-8.438;2022-08-01T11:09:27;100374.16;;;45.64;20.51
60886;BME280;46736;41.654;-8.438;2022-08-01T11:51:03;100334.19;;;46.38;19.06
60886;BME280;46736;41.654;-8.438;2022-08-01T11:58:35;100326.28;;;45.57;20.59
60886;BME280;46736;41.654;-8.438;2022-08-01T16:52:30;100187.31;;;37.52;27.42
60886;BME280;46736;41.654;-8.438;2022-08-01T16:55:55;100183.59;;;37.38;27.21
60886;BME280;46736;41.654;-8.438;2022-08-01T18:08:53;100152.28;;;35.29;34.68
60886;BME280;46736;41.654;-8.438;2022-08-01T19:29:41;100188.03;;;31.75;41.08
60886;BME280;46736;41.654;-8.438;2022-08-01T19:34:52;100195.16;;;31.44;40.71
60886;BME280;46736;41.654;-8.438;2022-08-01T19:40:00;100187.84;;;31.00;41.15
60886;BME280;46736;41.654;-8.438;2022-08-01T19:42:01;100179.78;;;30.69;42.93
60886;BME280;46736;41.654;-8.438;2022-08-01T19:44:05;100186.84;;;30.60;43.59
60886;BME280;46736;41.654;-8.438;2022-08-01T19:46:07;100201.47;;;30.49;42.07
60886;BME280;46736;41.654;-8.438;2022-08-01T19:48:08;100198.72;;;30.53;41.90
60886;BME280;46736;41.654;-8.438;2022-08-01T19:50:09;100204.16;;;30.35;42.16
60886;BME280;46736;41.654;-8.438;2022-08-01T19:52:14;100202.03;;;30.21;42.28
60886;BME280;46736;41.654;-8.438;2022-08-01T19:54:20;100213.47;;;30.16;42.67
60886;BME280;46736;41.654;-8.438;2022-08-01T19:56:24;100192.81;;;30.06;41.82
60886;BME280;46736;41.654;-8.438;2022-08-01T20:04:09;100212.84;;;29.48;42.54
60886;BME280;46736;41.654;-8.438;2022-08-01T20:06:12;100221.97;;;29.49;43.13
60886;BME280;46736;41.654;-8.438;2022-08-01T20:08:13;100217.38;;;29.30;43.78
60886;BME280;46736;41.654;-8.438;2022-08-01T20:10:16;100220.78;;;29.16;44.34
60886;BME280;46736;41.654;-8.438;2022-08-01T20:12:20;100226.81;;;28.91;45.34
60886;BME280;46736;41.654;-8.438;2022-08-01T20:14:24;100224.59;;;28.74;46.00
60886;BME280;46736;41.654;-8.438;2022-08-01T20:16:27;100229.84;;;28.56;46.19
60886;BME280;46736;41.654;-8.438;2022-08-01T20:18:28;100240.44;;;28.50;46.64
60886;BME280;46736;41.654;-8.438;2022-08-01T20:20:30;100231.28;;;28.23;47.31
60886;BME280;46736;41.654;-8.438;2022-08-01T20:22:34;100232.63;;;28.06;47.46
60886;BME280;46736;41.654;-8.438;2022-08-01T20:24:38;100239.13;;;27.95;47.88
60886;BME280;46736;41.654;-8.438;2022-08-01T20:26:39;100250.25;;;27.79;48.86
60886;BME280;46736;41.654;-8.438;2022-08-01T20:28:45;100246.16;;;27.49;49.21
60886;BME280;46736;41.654;-8.438;2022-08-01T20:33:14;100252.63;;;27.57;49.38
60886;BME280;46736;41.654;-8.438;2022-08-01T20:35:16;100262.69;;;27.46;49.70
60886;BME280;46736;41.654;-8.438;2022-08-01T20:37:17;100266.22;;;27.46;49.54
60886;BME280;46736;41.654;-8.438;2022-08-01T20:39:20;100269.59;;;27.36;50.26
60886;BME280;46736;41.654;-8.438;2022-08-01T20:41:24;100270.38;;;27.37;49.96
60886;BME280;46736;41.654;-8.438;2022-08-01T21:08:03;100309.66;;;26.59;53.23
60886;BME280;46736;41.654;-8.438;2022-08-01T21:10:09;100311.19;;;26.57;53.71
60886;BME280;46736;41.654;-8.438;2022-08-01T21:12:19;100311.16;;;26.41;53.77
60886;BME280;46736;41.654;-8.438;2022-08-01T21:14:33;100310.72;;;26.39;53.81
60886;BME280;46736;41.654;-8.438;2022-08-01T21:16:42;100323.13;;;26.49;53.44
60886;BME280;46736;41.654;-8.438;2022-08-01T21:19:00;100323.97;;;26.33;54.00
60886;BME280;46736;41.654;-8.438;2022-08-01T21:21:14;100334.34;;;26.40;54.19
60886;BME280;46736;41.654;-8.438;2022-08-01T21:25:26;100334.97;;;26.17;54.39
60886;BME280;46736;41.654;-8.438;2022-08-01T21:27:33;100338.63;;;26.22;54.38
60886;BME280;46736;41.654;-8.438;2022-08-01T21:29:35;100326.53;;;26.10;54.33
60886;BME280;46736;41.654;-8.438;2022-08-01T21:31:38;100331.31;;;26.13;54.05
60886;BME280;46736;41.654;-8.438;2022-08-01T21:33:40;100340.56;;;26.05;54.73
60886;BME280;46736;41.654;-8.438;2022-08-01T21:35:41;100334.38;;;25.96;55.39
60886;BME280;46736;41.654;-8.438;2022-08-01T21:37:41;100344.81;;;26.03;54.93
60886;BME280;46736;41.654;-8.438;2022-08-01T21:39:44;100338.78;;;26.13;54.06
60886;BME280;46736;41.654;-8.438;2022-08-01T21:41:45;100341.06;;;25.95;54.52
60886;BME280;46736;41.654;-8.438;2022-08-01T21:43:46;100342.03;;;25.87;55.22
60886;BME280;46736;41.654;-8.438;2022-08-01T21:45:49;100350.47;;;25.66;55.72
60886;BME280;46736;41.654;-8.438;2022-08-01T21:47:50;100351.97;;;25.63;57.01
60886;BME280;46736;41.654;-8.438;2022-08-01T21:49:52;100352.84;;;25.67;56.42
60886;BME280;46736;41.654;-8.438;2022-08-01T21:51:59;100356.41;;;25.68;55.39
60886;BME280;46736;41.654;-8.438;2022-08-01T22:03:24;100353.91;;;25.22;56.96
60886;BME280;46736;41.654;-8.438;2022-08-01T22:05:27;100356.75;;;25.14;57.30
60886;BME280;46736;41.654;-8.438;2022-08-01T22:07:33;100358.13;;;25.07;57.37
60886;BME280;46736;41.654;-8.438;2022-08-01T22:09:37;100365.50;;;25.03;57.64
60886;BME280;46736;41.654;-8.438;2022-08-01T22:11:39;100359.97;;;25.16;57.23
60886;BME280;46736;41.654;-8.438;2022-08-01T22:13:40;100365.94;;;25.18;57.35
60886;BME280;46736;41.654;-8.438;2022-08-01T22:15:41;100361.34;;;24.97;57.64
60886;BME280;46736;41.654;-8.438;2022-08-01T22:17:43;100352.66;;;24.71;60.14
60886;BME280;46736;41.654;-8.438;2022-08-01T22:19:48;100352.31;;;24.60;59.61
60886;BME280;46736;41.654;-8.438;2022-08-01T22:21:49;100354.69;;;24.49;60.35
60886;BME280;46736;41.654;-8.438;2022-08-01T22:23:50;100367.59;;;24.36;60.14
60886;BME280;46736;41.654;-8.438;2022-08-01T22:25:53;100371.94;;;24.37;60.13
60886;BME280;46736;41.654;-8.438;2022-08-01T22:27:54;100370.56;;;24.31;61.02
60886;BME280;46736;41.654;-8.438;2022-08-01T22:29:58;100359.59;;;24.43;60.20
60886;BME280;46736;41.654;-8.438;2022-08-01T22:31:59;100368.16;;;24.42;60.60
60886;BME280;46736;41.654;-8.438;2022-08-01T22:34:00;100361.69;;;24.47;60.59
60886;BME280;46736;41.654;-8.438;2022-08-01T22:36:03;100362.63;;;24.51;59.98
60886;BME280;46736;41.654;-8.438;2022-08-01T22:38:03;100373.81;;;24.58;59.49
60886;BME280;46736;41.654;-8.438;2022-08-01T22:40:07;100373.66;;;24.42;60.08
60886;BME280;46736;41.654;-8.438;2022-08-01T22:42:08;100375.38;;;24.34;60.73
60886;BME280;46736;41.654;-8.438;2022-08-01T22:44:13;100371.91;;;24.25;60.53
60886;BME280;46736;41.654;-8.438;2022-08-01T22:48:43;100368.59;;;24.19;61.74
60886;BME280;46736;41.654;-8.438;2022-08-01T22:50:49;100377.06;;;24.14;62.30
60886;BME280;46736;41.654;-8.438;2022-08-01T22:52:59;100379.22;;;24.21;61.19
60886;BME280;46736;41.654;-8.438;2022-08-01T22:55:05;100380.16;;;24.25;61.23
60886;BME280;46736;41.654;-8.438;2022-08-01T22:57:15;100385.41;;;24.18;61.43
60886;BME280;46736;41.654;-8.438;2022-08-01T22:59:20;100375.69;;;24.20;62.32
60886;BME280;46736;41.654;-8.438;2022-08-01T23:01:27;100379.31;;;24.12;62.44
60886;BME280;46736;41.654;-8.438;2022-08-01T23:03:33;100385.94;;;24.11;62.75
60886;BME280;46736;41.654;-8.438;2022-08-01T23:05:41;100379.06;;;24.05;62.75
60886;BME280;46736;41.654;-8.438;2022-08-01T23:07:52;100379.38;;;23.91;63.46
60886;BME280;46736;41.654;-8.438;2022-08-01T23:09:54;100388.81;;;23.82;63.73
60886;BME280;46736;41.654;-8.438;2022-08-01T23:11:56;100376.09;;;23.77;63.76
60886;BME280;46736;41.654;-8.438;2022-08-01T23:14:01;100387.53;;;23.79;63.53
60886;BME280;46736;41.654;-8.438;2022-08-01T23:16:02;100387.13;;;23.89;63.25
60886;BME280;46736;41.654;-8.438;2022-08-01T23:18:04;100383.31;;;23.82;63.53
60886;BME280;46736;41.654;-8.438;2022-08-01T23:20:06;100387.91;;;23.69;63.68
60886;BME280;46736;41.654;-8.438;2022-08-01T23:22:08;100391.81;;;23.68;64.13
60886;BME280;46736;41.654;-8.438;2022-08-01T23:24:10;100394.00;;;23.53;64.56
60886;BME280;46736;41.654;-8.438;2022-08-01T23:26:11;100392.72;;;23.51;64.94
60886;BME280;46736;41.654;-8.438;2022-08-01T23:28:15;100389.66;;;23.52;64.92
60886;BME280;46736;41.654;-8.438;2022-08-01T23:30:15;100386.03;;;23.61;64.95
60886;BME280;46736;41.654;-8.438;2022-08-01T23:32:17;100370.97;;;23.46;65.30
60886;BME280;46736;41.654;-8.438;2022-08-01T23:34:19;100380.22;;;23.41;65.71
60886;BME280;46736;41.654;-8.438;2022-08-01T23:36:19;100378.69;;;23.31;65.74
60886;BME280;46736;41.654;-8.438;2022-08-01T23:38:20;100380.81;;;23.26;66.02
60886;BME280;46736;41.654;-8.438;2022-08-01T23:40:21;100374.06;;;23.23;66.51
60886;BME280;46736;41.654;-8.438;2022-08-01T23:42:22;100364.75;;;23.15;66.84
60886;BME280;46736;41.654;-8.438;2022-08-01T23:44:23;100372.09;;;23.24;66.88
60886;BME280;46736;41.654;-8.438;2022-08-01T23:46:23;100365.47;;;23.25;66.59
60886;BME280;46736;41.654;-8.438;2022-08-01T23:48:24;100360.97;;;23.20;66.92
60886;BME280;46736;41.654;-8.438;2022-08-01T23:50:24;100367.63;;;23.19;67.33
60886;BME280;46736;41.654;-8.438;2022-08-01T23:52:26;100367.31;;;23.12;66.85
60886;BME280;46736;41.654;-8.438;2022-08-01T23:54:28;100371.72;;;23.04;67.30
60886;BME280;46736;41.654;-8.438;2022-08-01T23:56:28;100373.53;;;23.00;67.76